Time;durP1;ratioP1;P1;durP2;ratioP2;P2;SDS_P1;SDS_P2;PMS_P1;PMS_P2;Temp;Humidity;BMP_temperature;BMP_pressure;BME280_temperature;BME280_humidity;BME280_pressure;Samples;Min_cycle;Max_cycle;Signal;HPM_P1;HPM_P2
2022/07/24 00:00:06;;;;;;;12.63;7.13;;;;;;;25.48;36.28;95043.72;5043324;28;20266;-63
2022/07/24 00:02:32;;;;;;;10.15;8.05;;;;;;;25.35;36.09;95044.84;5042673;28;20300;-65
2022/07/24 00:04:58;;;;;;;12.60;8.07;;;;;;;25.25;38.24;95045.50;5042377;28;20263;-64
2022/07/24 00:07:24;;;;;;;12.52;7.40;;;;;;;25.28;38.33;95046.88;5044936;28;20198;-64
2022/07/24 00:09:49;;;;;;;11.93;8.25;;;;;;;25.14;38.69;95045.53;5045605;28;20209;-63
2022/07/24 00:12:14;;;;;;;14.73;7.65;;;;;;;25.08;38.53;95044.63;5042352;28;20236;-65
2022/07/24 00:14:40;;;;;;;11.18;8.05;;;;;;;25.23;38.41;95038.72;5042557;28;20262;-65
2022/07/24 00:17:05;;;;;;;12.73;8.30;;;;;;;25.18;38.61;95049.38;5032404;28;20243;-64
2022/07/24 00:19:31;;;;;;;10.80;7.75;;;;;;;24.99;39.62;95049.59;5041358;28;20204;-64
2022/07/24 00:21:57;;;;;;;12.77;8.20;;;;;;;25.08;39.28;95044.63;5056533;28;20229;-65
2022/07/24 00:24:22;;;;;;;9.73;7.78;;;;;;;24.92;38.75;95042.72;5059620;28;20217;-65
2022/07/24 00:26:48;;;;;;;11.02;7.50;;;;;;;24.90;38.98;95042.94;5043822;28;20252;-65
2022/07/24 00:29:13;;;;;;;13.90;8.68;;;;;;;24.97;38.32;95046.31;5044880;28;20209;-65
2022/07/24 00:31:39;;;;;;;12.00;7.75;;;;;;;24.93;38.21;95041.66;5057868;28;20201;-65
2022/07/24 00:34:04;;;;;;;13.85;8.20;;;;;;;24.84;37.06;95041.22;5041540;28;20229;-65
2022/07/24 00:36:30;;;;;;;10.63;7.75;;;;;;;24.85;38.03;95048.22;5041675;28;20259;-64
2022/07/24 00:38:55;;;;;;;12.88;8.52;;;;;;;24.76;37.70;95042.41;5058719;28;20252;-65
2022/07/24 00:41:20;;;;;;;12.38;8.73;;;;;;;24.75;37.45;95030.03;5042139;28;20245;-65
2022/07/24 00:44:14;;;;;;;11.10;8.55;;;;;;;24.76;37.29;95031.66;5047649;28;20273;-65
2022/07/24 00:46:41;;;;;;;11.73;8.13;;;;;;;24.72;37.75;95030.50;5048490;28;20214;-66
2022/07/24 00:49:09;;;;;;;13.57;8.77;;;;;;;24.71;37.95;95030.75;5027856;28;20709;-65
2022/07/24 00:51:35;;;;;;;13.48;8.50;;;;;;;24.73;38.30;95034.84;5038634;28;20226;-64
2022/07/24 00:54:05;;;;;;;15.70;8.98;;;;;;;24.46;39.16;95039.13;5023729;28;20224;-65
2022/07/24 00:56:30;;;;;;;14.38;8.27;;;;;;;23.91;41.01;95037.66;5037332;28;20291;-64
2022/07/24 00:58:56;;;;;;;11.77;7.93;;;;;;;24.43;41.00;95037.69;5023739;28;20612;-64
2022/07/24 01:01:21;;;;;;;12.45;8.40;;;;;;;24.46;40.97;95034.59;5063626;28;20243;-65
2022/07/24 01:03:47;;;;;;;14.05;8.77;;;;;;;24.42;41.15;95039.56;5043004;28;20327;-64
2022/07/24 01:06:13;;;;;;;14.43;8.38;;;;;;;24.29;40.30;95033.63;5034685;28;20700;-65
2022/07/24 01:08:40;;;;;;;16.05;8.85;;;;;;;24.15;40.71;95031.22;5041994;28;20279;-64
2022/07/24 01:11:06;;;;;;;13.98;9.23;;;;;;;24.24;40.50;95036.22;5042814;28;20219;-65
2022/07/24 01:13:31;;;;;;;9.00;8.07;;;;;;;24.34;40.65;95036.44;5043079;28;20205;-65
2022/07/24 01:15:58;;;;;;;16.45;9.05;;;;;;;24.46;39.89;95037.28;5041057;28;20553;-65
2022/07/24 01:18:23;;;;;;;17.48;8.40;;;;;;;24.30;39.93;95041.47;5042785;28;20217;-65
2022/07/24 01:20:50;;;;;;;11.45;8.20;;;;;;;24.35;40.38;95038.06;5041725;28;20271;-65
2022/07/24 01:23:16;;;;;;;12.77;7.90;;;;;;;24.29;40.82;95031.75;5039926;28;20277;-65
2022/07/24 01:25:41;;;;;;;18.90;9.18;;;;;;;24.21;40.73;95027.56;5043171;28;20307;-65
2022/07/24 01:28:07;;;;;;;14.98;9.38;;;;;;;24.32;40.84;95033.16;5036917;28;20260;-66
2022/07/24 01:30:33;;;;;;;11.48;8.68;;;;;;;24.21;41.55;95026.75;5040992;28;20218;-65
2022/07/24 01:32:59;;;;;;;13.60;8.55;;;;;;;24.27;41.17;95028.53;5041283;28;20247;-65
2022/07/24 01:35:25;;;;;;;14.27;9.00;;;;;;;24.33;41.16;95029.44;5044155;28;20225;-66
2022/07/24 01:37:52;;;;;;;13.70;8.13;;;;;;;24.32;40.67;95017.84;5044991;28;20206;-65
2022/07/24 01:40:18;;;;;;;12.07;7.55;;;;;;;24.26;40.65;95024.19;5042396;28;20224;-65
2022/07/24 01:42:43;;;;;;;11.75;8.00;;;;;;;23.96;39.82;95017.09;5058952;28;20222;-65
2022/07/24 01:45:09;;;;;;;14.68;8.05;;;;;;;24.08;40.27;95022.44;5040996;28;20223;-64
2022/07/24 01:47:34;;;;;;;10.90;7.40;;;;;;;24.13;40.49;95013.69;5037916;28;20232;-65
2022/07/24 01:50:00;;;;;;;16.83;8.25;;;;;;;23.83;40.44;95011.16;5040508;28;20229;-65
2022/07/24 01:52:25;;;;;;;12.68;7.68;;;;;;;23.73;40.66;95009.88;5043988;28;20209;-65
2022/07/24 01:54:52;;;;;;;13.18;8.13;;;;;;;23.76;41.32;95009.44;5041114;28;20244;-64
2022/07/24 01:57:17;;;;;;;9.95;8.10;;;;;;;23.77;42.20;95004.88;5059185;28;20261;-64
2022/07/24 01:59:43;;;;;;;10.73;7.90;;;;;;;23.65;42.50;95009.38;5040391;28;20300;-66
2022/07/24 02:02:08;;;;;;;13.05;8.35;;;;;;;23.58;43.25;95014.06;5039652;28;20201;-65
2022/07/24 02:04:34;;;;;;;11.90;7.80;;;;;;;23.45;43.35;95012.41;5040326;28;20201;-66
2022/07/24 02:06:59;;;;;;;13.95;8.48;;;;;;;23.28;43.87;95018.47;5041188;28;20235;-65
2022/07/24 02:09:25;;;;;;;14.25;8.02;;;;;;;23.40;41.85;95009.63;5038849;28;20237;-64
2022/07/24 02:11:51;;;;;;;16.20;8.10;;;;;;;23.48;41.38;95007.41;5049722;28;20227;-65
2022/07/24 02:14:16;;;;;;;15.48;8.15;;;;;;;23.56;41.44;95011.59;5048773;28;20229;-66
2022/07/24 02:16:42;;;;;;;13.88;8.80;;;;;;;23.62;41.04;95010.66;5043159;28;20259;-65
2022/07/24 02:19:07;;;;;;;13.32;8.13;;;;;;;23.48;41.43;95014.63;5060197;28;20214;-66
2022/07/24 02:21:33;;;;;;;10.40;7.32;;;;;;;23.46;40.45;95019.41;5044000;28;20221;-65
2022/07/24 02:23:58;;;;;;;10.23;7.45;;;;;;;23.44;39.78;95011.63;5060539;28;20279;-66
2022/07/24 02:26:24;;;;;;;13.40;7.60;;;;;;;23.28;40.01;95021.16;5047655;28;20218;-66
2022/07/24 02:28:49;;;;;;;15.43;7.07;;;;;;;23.39;39.63;95005.28;5049245;28;20226;-66
2022/07/24 02:31:15;;;;;;;9.45;7.28;;;;;;;23.31;39.73;95001.91;5049355;28;20218;-66
2022/07/24 02:33:40;;;;;;;13.07;7.63;;;;;;;23.42;39.19;95002.16;5043611;28;20213;-66
2022/07/24 02:36:06;;;;;;;8.30;6.70;;;;;;;23.51;38.18;95006.94;5061108;28;20311;-64
2022/07/24 02:38:32;;;;;;;11.30;6.97;;;;;;;23.53;37.08;95002.16;5041461;28;20225;-65
2022/07/24 02:40:57;;;;;;;12.10;7.40;;;;;;;23.47;37.31;95011.16;5045336;28;20205;-64
2022/07/24 02:43:23;;;;;;;11.27;6.90;;;;;;;23.46;37.82;95019.41;5041513;28;20197;-64
2022/07/24 02:45:48;;;;;;;15.55;7.55;;;;;;;23.58;37.21;95019.44;5063057;28;20244;-65
2022/07/24 02:48:13;;;;;;;7.72;6.72;;;;;;;23.50;37.67;95015.22;5064821;28;20228;-65
2022/07/24 02:50:39;;;;;;;10.68;6.70;;;;;;;23.32;38.31;95019.63;5063856;28;20221;-65
2022/07/24 02:53:05;;;;;;;12.00;6.93;;;;;;;23.40;38.13;95006.94;5061361;28;20197;-64
2022/07/24 02:55:31;;;;;;;12.32;7.15;;;;;;;23.40;37.80;95014.97;5044662;28;20699;-64
2022/07/24 02:57:56;;;;;;;12.40;7.10;;;;;;;23.41;37.82;95005.88;5044303;28;20249;-65
2022/07/24 03:00:22;;;;;;;10.35;6.65;;;;;;;23.43;37.54;95017.19;5044389;28;20236;-65
2022/07/24 03:02:48;;;;;;;12.50;7.18;;;;;;;23.31;37.46;95018.00;5046804;28;20221;-64
2022/07/24 03:05:14;;;;;;;10.90;6.70;;;;;;;23.22;38.17;95018.56;5044390;28;20206;-65
2022/07/24 03:07:40;;;;;;;10.43;7.82;;;;;;;23.24;38.88;95021.84;5048866;28;20198;-65
2022/07/24 03:10:08;;;;;;;11.20;7.43;;;;;;;23.30;39.81;95023.59;5046103;28;20288;-65
2022/07/24 03:12:33;;;;;;;9.90;7.85;;;;;;;23.00;39.66;95013.72;5044773;28;20209;-65
2022/07/24 03:14:59;;;;;;;11.38;7.35;;;;;;;22.88;40.26;95016.34;5042590;28;20222;-64
2022/07/24 03:17:25;;;;;;;11.52;7.05;;;;;;;22.89;40.39;95003.75;5059443;28;20228;-65
2022/07/24 03:19:50;;;;;;;10.75;7.40;;;;;;;22.96;40.37;95004.53;5042829;28;20193;-65
2022/07/24 03:22:16;;;;;;;11.23;6.72;;;;;;;22.96;39.51;95011.69;5047045;28;20817;-64
2022/07/24 03:24:41;;;;;;;10.93;7.28;;;;;;;22.97;41.22;95016.88;5045147;28;20225;-65
2022/07/24 03:27:07;;;;;;;9.70;7.93;;;;;;;22.86;41.60;95028.34;5043166;28;20337;-64
2022/07/24 03:29:32;;;;;;;11.75;7.90;;;;;;;22.92;41.62;95027.44;5044426;28;20292;-64
2022/07/24 03:31:58;;;;;;;11.35;7.28;;;;;;;22.75;42.59;95021.91;5043630;28;20300;-65
2022/07/24 03:34:23;;;;;;;12.13;8.20;;;;;;;22.59;43.23;95020.69;5044670;28;20205;-65
2022/07/24 03:36:48;;;;;;;11.98;8.07;;;;;;;22.71;43.26;95018.03;5041570;28;20221;-65
2022/07/24 03:39:14;;;;;;;12.43;7.75;;;;;;;22.77;43.01;95019.78;5061963;28;20313;-65
2022/07/24 03:41:40;;;;;;;15.15;8.38;;;;;;;22.80;42.89;95015.84;5042103;28;20243;-65
2022/07/24 03:44:06;;;;;;;11.90;7.50;;;;;;;22.76;42.99;95020.03;5059332;28;20269;-65
2022/07/24 03:46:31;;;;;;;12.73;8.30;;;;;;;22.79;42.88;95030.31;5043862;28;20198;-65
2022/07/24 03:48:57;;;;;;;10.13;8.13;;;;;;;22.81;42.93;95026.34;5041276;28;20296;-64
2022/07/24 03:51:23;;;;;;;10.40;8.02;;;;;;;22.88;42.84;95026.25;5040583;28;20245;-65
2022/07/24 03:53:48;;;;;;;10.40;7.95;;;;;;;23.11;42.14;95030.91;5044361;28;20229;-65
2022/07/24 03:56:15;;;;;;;11.75;8.05;;;;;;;23.11;42.24;95022.84;5045777;28;20210;-64
2022/07/24 03:58:40;;;;;;;11.18;8.55;;;;;;;23.04;42.78;95022.13;5040351;28;20284;-65
2022/07/24 04:01:06;;;;;;;13.35;8.80;;;;;;;23.13;42.66;95018.09;5043402;28;20313;-65
2022/07/24 04:03:32;;;;;;;11.77;8.05;;;;;;;23.01;42.59;95011.88;5041838;28;20283;-66
2022/07/24 04:05:57;;;;;;;10.70;8.00;;;;;;;23.09;42.64;95012.38;5059671;28;20229;-66
2022/07/24 04:08:22;;;;;;;10.85;7.40;;;;;;;23.20;41.69;95017.97;5060277;28;20226;-66
2022/07/24 04:10:48;;;;;;;11.75;7.60;;;;;;;23.27;41.23;95019.50;5043865;28;20296;-65
2022/07/24 04:13:13;;;;;;;11.98;7.30;;;;;;;23.17;41.06;95021.94;5044779;28;20224;-65
2022/07/24 04:15:39;;;;;;;8.02;7.15;;;;;;;23.25;40.20;95026.94;5047730;28;20221;-65
2022/07/24 04:18:04;;;;;;;12.15;7.90;;;;;;;23.17;40.24;95027.28;5058323;28;20310;-65
2022/07/24 04:20:30;;;;;;;16.38;9.27;;;;;;;23.13;40.71;95020.75;5039872;28;20222;-66
2022/07/24 04:22:55;;;;;;;9.65;7.75;;;;;;;23.10;41.14;95016.69;5036256;28;20210;-66
2022/07/24 04:25:21;;;;;;;11.95;7.97;;;;;;;23.23;41.50;95021.03;5044235;28;20820;-65
2022/07/24 04:27:47;;;;;;;10.35;7.90;;;;;;;23.43;41.06;95020.69;5055887;28;20240;-65
2022/07/24 04:30:13;;;;;;;11.25;8.00;;;;;;;23.39;41.25;95021.38;5044562;28;20217;-66
2022/07/24 04:32:39;;;;;;;13.25;7.90;;;;;;;23.30;41.29;95026.28;5042914;28;20225;-65
2022/07/24 04:35:05;;;;;;;10.13;7.82;;;;;;;23.26;41.47;95027.78;5043367;28;20579;-65
2022/07/24 04:37:31;;;;;;;12.70;7.90;;;;;;;23.16;41.66;95024.84;5044265;28;20236;-65
2022/07/24 04:39:56;;;;;;;12.55;7.90;;;;;;;23.32;41.16;95029.56;5041625;28;20213;-66
2022/07/24 04:42:22;;;;;;;11.50;8.23;;;;;;;23.47;40.72;95021.03;5042969;28;20221;-64
2022/07/24 04:44:47;;;;;;;12.68;7.97;;;;;;;23.57;40.36;95021.28;5042922;28;20220;-65
2022/07/24 04:47:12;;;;;;;14.80;8.38;;;;;;;23.73;40.62;95025.97;5060734;28;20228;-64
2022/07/24 04:49:38;;;;;;;9.32;7.97;;;;;;;23.62;40.87;95031.31;5045824;28;20205;-66
2022/07/24 04:52:04;;;;;;;13.48;9.07;;;;;;;23.60;41.60;95030.72;5046119;28;20236;-65
2022/07/24 04:54:29;;;;;;;11.75;8.43;;;;;;;23.62;41.30;95034.81;5040492;28;20229;-66
2022/07/24 04:56:55;;;;;;;10.10;9.07;;;;;;;23.61;41.66;95038.56;5043856;28;20228;-66
2022/07/24 04:59:20;;;;;;;14.05;9.20;;;;;;;23.68;41.29;95031.22;5043322;28;20224;-64
2022/07/24 05:01:46;;;;;;;13.68;8.82;;;;;;;23.71;40.91;95038.84;5043300;28;20296;-66
2022/07/24 05:04:11;;;;;;;12.65;9.15;;;;;;;23.74;40.49;95038.38;5044021;28;20236;-65
2022/07/24 05:06:36;;;;;;;11.93;9.02;;;;;;;23.82;39.65;95039.06;5044034;28;20217;-65
2022/07/24 05:09:02;;;;;;;12.50;9.07;;;;;;;23.82;39.79;95039.91;5047268;28;20229;-64
2022/07/24 05:11:28;;;;;;;14.73;9.57;;;;;;;23.90;39.78;95050.28;5057982;28;20695;-65
2022/07/24 05:13:53;;;;;;;10.68;8.80;;;;;;;23.94;39.94;95045.25;5042099;28;20228;-65
2022/07/24 05:16:19;;;;;;;14.98;9.77;;;;;;;24.07;40.17;95044.19;5040791;28;20221;-64
2022/07/24 05:18:44;;;;;;;15.30;8.57;;;;;;;23.99;40.82;95043.50;5042260;28;20231;-64
2022/07/24 05:21:10;;;;;;;11.30;9.25;;;;;;;23.96;41.28;95051.22;5041292;28;20279;-65
2022/07/24 05:23:35;;;;;;;12.82;9.52;;;;;;;23.97;41.05;95044.78;5047215;28;20241;-66
2022/07/24 05:26:01;;;;;;;14.13;9.85;;;;;;;24.08;41.05;95054.69;5045116;28;20296;-65
2022/07/24 05:28:26;;;;;;;12.10;9.23;;;;;;;24.17;40.30;95037.16;5058687;28;20252;-66
2022/07/24 05:30:52;;;;;;;10.73;9.30;;;;;;;24.10;40.93;95046.41;5041749;28;20225;-65
2022/07/24 05:33:17;;;;;;;11.25;9.32;;;;;;;24.07;40.94;95041.50;5056763;28;20221;-65
2022/07/24 05:35:43;;;;;;;13.52;8.15;;;;;;;24.21;40.52;95048.25;5041413;28;20221;-66
2022/07/24 05:38:08;;;;;;;11.65;8.88;;;;;;;24.30;40.92;95051.38;5042404;28;20201;-66
2022/07/24 05:40:33;;;;;;;15.15;9.55;;;;;;;24.44;40.20;95044.75;5046762;28;20247;-66
2022/07/24 05:42:59;;;;;;;15.35;9.27;;;;;;;24.48;39.44;95047.75;5059270;28;20291;-64
2022/07/24 05:45:24;;;;;;;9.73;8.60;;;;;;;24.45;39.52;95043.69;5042170;28;20692;-66
2022/07/24 05:47:50;;;;;;;11.70;8.80;;;;;;;24.53;39.03;95045.19;5045347;28;20217;-66
2022/07/24 05:50:15;;;;;;;15.70;9.68;;;;;;;24.37;39.77;95041.34;5044119;28;20232;-64
2022/07/24 05:52:41;;;;;;;14.82;9.68;;;;;;;24.54;38.82;95036.91;5061767;28;20332;-65
2022/07/24 05:55:08;;;;;;;12.93;9.38;;;;;;;24.63;38.58;95032.75;5044726;28;20221;-65
2022/07/24 05:57:33;;;;;;;13.82;9.32;;;;;;;24.66;38.05;95028.78;5048488;28;20223;-65
2022/07/24 05:59:59;;;;;;;10.57;9.02;;;;;;;24.76;37.95;95044.31;5064830;28;20309;-65
2022/07/24 06:02:24;;;;;;;15.18;8.68;;;;;;;24.77;38.05;95035.16;5062435;28;20231;-65
2022/07/24 06:04:50;;;;;;;11.60;10.20;;;;;;;24.85;37.81;95037.47;5046721;28;20197;-65
2022/07/24 06:07:15;;;;;;;15.38;9.48;;;;;;;24.90;38.00;95028.69;5043497;28;20245;-66
2022/07/24 06:09:41;;;;;;;11.13;9.10;;;;;;;25.06;37.58;95028.72;5043112;28;20222;-64
2022/07/24 06:12:07;;;;;;;13.15;9.75;;;;;;;25.14;36.99;95024.00;5045283;28;20221;-65
2022/07/24 06:14:33;;;;;;;14.13;9.27;;;;;;;25.24;36.63;95030.41;5032636;28;20221;-65
2022/07/24 06:16:58;;;;;;;13.63;8.95;;;;;;;25.20;37.06;95039.19;5066578;28;20205;-65
2022/07/24 06:19:24;;;;;;;12.50;9.50;;;;;;;25.27;37.52;95039.88;5044607;28;20200;-65
2022/07/24 06:21:50;;;;;;;12.38;9.90;;;;;;;25.36;38.44;95035.72;5044867;28;20228;-65
2022/07/24 06:24:16;;;;;;;13.80;9.90;;;;;;;25.37;37.78;95037.38;5045869;28;20221;-64
2022/07/24 06:26:42;;;;;;;14.80;9.68;;;;;;;25.39;36.89;95027.13;5043855;28;20435;-65
2022/07/24 06:29:07;;;;;;;12.80;9.07;;;;;;;25.45;36.66;95028.88;5044987;28;20563;-65
2022/07/24 06:31:32;;;;;;;13.15;9.10;;;;;;;25.49;36.24;95024.63;5046513;28;20197;-64
2022/07/24 06:33:58;;;;;;;15.48;9.27;;;;;;;25.49;36.69;95026.50;5045531;28;20225;-65
2022/07/24 06:36:23;;;;;;;14.65;9.85;;;;;;;25.59;36.56;95026.66;5048267;28;20308;-64
2022/07/24 06:38:49;;;;;;;12.02;9.18;;;;;;;25.51;37.47;95017.13;5042087;28;20233;-65
2022/07/24 06:41:14;;;;;;;15.05;9.35;;;;;;;25.74;37.37;95020.69;5041375;28;20212;-65
2022/07/24 06:43:40;;;;;;;14.73;9.35;;;;;;;25.85;37.09;95014.44;5045154;28;20280;-65
2022/07/24 06:46:06;;;;;;;13.35;9.88;;;;;;;25.87;38.07;95016.88;5049453;28;20237;-66
2022/07/24 06:48:31;;;;;;;16.27;10.20;;;;;;;25.94;37.78;95012.94;5049013;28;20502;-65
2022/07/24 06:50:57;;;;;;;13.40;9.55;;;;;;;25.94;37.77;95012.13;5047605;28;20221;-66
2022/07/24 06:53:22;;;;;;;13.45;9.75;;;;;;;25.99;38.01;95006.00;5045182;28;20229;-65
2022/07/24 06:55:48;;;;;;;16.88;10.60;;;;;;;26.08;37.71;95002.63;5044899;28;20213;-66
2022/07/24 06:58:13;;;;;;;13.10;9.98;;;;;;;26.14;37.68;95001.66;5045258;28;20236;-65
2022/07/24 07:00:39;;;;;;;15.57;10.00;;;;;;;26.24;37.13;95006.34;5043238;28;20222;-64
2022/07/24 07:03:05;;;;;;;15.10;9.68;;;;;;;26.32;37.47;95003.19;5041648;28;20217;-65
2022/07/24 07:05:31;;;;;;;16.25;9.77;;;;;;;26.36;37.50;95001.66;5046314;28;20370;-65
2022/07/24 07:07:57;;;;;;;14.32;10.30;;;;;;;26.42;37.60;95001.72;5049698;28;20210;-66
2022/07/24 07:10:23;;;;;;;15.60;10.25;;;;;;;26.51;36.27;94994.78;5048880;28;20226;-66
2022/07/24 07:12:49;;;;;;;14.98;10.10;;;;;;;26.56;36.36;94994.88;5044279;28;20225;-65
2022/07/24 07:15:15;;;;;;;12.40;9.85;;;;;;;26.51;34.49;95000.19;5045364;28;20479;-65
2022/07/24 07:17:41;;;;;;;13.52;10.32;;;;;;;26.60;34.09;95004.13;5043835;28;20289;-65
2022/07/24 07:20:08;;;;;;;12.50;9.27;;;;;;;26.70;33.96;95004.22;5043897;28;20585;-66
2022/07/24 07:22:34;;;;;;;10.57;9.05;;;;;;;26.71;33.56;95000.47;5059152;28;20246;-67
2022/07/24 07:24:59;;;;;;;12.82;9.50;;;;;;;26.78;33.53;95000.25;5045411;28;20221;-66
2022/07/24 07:27:25;;;;;;;13.30;9.75;;;;;;;26.88;32.93;95002.25;5047806;28;20296;-64
2022/07/24 07:29:50;;;;;;;15.98;9.65;;;;;;;26.90;32.26;95002.81;5042073;28;20222;-64
2022/07/24 07:32:15;;;;;;;11.18;9.27;;;;;;;26.87;33.50;94989.84;5058428;28;20197;-64
2022/07/24 07:34:41;;;;;;;11.55;9.60;;;;;;;26.92;34.09;94988.00;5044353;28;20206;-65
2022/07/24 07:37:06;;;;;;;13.50;9.40;;;;;;;26.96;34.63;94997.19;5024569;28;20253;-65
2022/07/24 07:39:32;;;;;;;14.52;9.60;;;;;;;27.10;34.02;94996.78;5042488;28;20316;-64
2022/07/24 07:41:57;;;;;;;14.35;9.98;;;;;;;27.16;33.75;94998.44;5061132;28;20228;-65
2022/07/24 07:44:23;;;;;;;18.00;10.30;;;;;;;26.91;34.33;94994.44;5048440;28;20213;-65
2022/07/24 07:46:48;;;;;;;12.60;9.55;;;;;;;26.82;34.53;94988.69;5043136;28;20251;-64
2022/07/24 07:49:14;;;;;;;17.63;9.73;;;;;;;27.10;34.20;94992.19;5041253;28;20248;-65
2022/07/24 07:51:39;;;;;;;12.82;9.90;;;;;;;27.28;33.73;94997.25;5059919;28;20225;-65
2022/07/24 07:54:05;;;;;;;13.65;9.70;;;;;;;27.34;33.72;94992.72;5044460;28;20225;-65
2022/07/24 07:56:31;;;;;;;11.73;9.73;;;;;;;27.43;33.38;94987.66;5044259;28;20217;-64
2022/07/24 07:58:57;;;;;;;12.65;10.18;;;;;;;27.45;33.17;94990.91;5045875;28;20304;-66
2022/07/24 08:01:22;;;;;;;15.25;9.63;;;;;;;27.62;32.93;94988.88;5042915;28;20206;-65
2022/07/24 08:03:48;;;;;;;13.57;9.88;;;;;;;27.76;32.30;94994.66;5043661;28;20279;-65
2022/07/24 08:06:13;;;;;;;10.05;8.70;;;;;;;27.85;32.15;94992.31;5032579;28;20554;-65
2022/07/24 08:08:39;;;;;;;13.65;9.77;;;;;;;27.84;32.03;94993.38;5022183;28;20258;-64
2022/07/24 08:11:04;;;;;;;14.27;9.48;;;;;;;27.88;31.94;94992.59;5055479;28;20526;-65
2022/07/24 08:13:30;;;;;;;19.90;10.25;;;;;;;27.88;31.84;94989.91;5056475;28;20206;-66
2022/07/24 08:15:56;;;;;;;16.17;10.20;;;;;;;28.01;31.60;94983.19;5023681;28;20283;-65
2022/07/24 08:18:22;;;;;;;10.68;9.32;;;;;;;28.07;31.45;94990.28;5024681;28;20229;-64
2022/07/24 08:20:47;;;;;;;13.63;9.55;;;;;;;28.18;31.50;94990.34;5024306;28;20228;-65
2022/07/24 08:23:12;;;;;;;12.00;9.52;;;;;;;28.17;30.87;95002.22;5023808;28;20203;-65
2022/07/24 08:25:38;;;;;;;17.15;9.32;;;;;;;28.28;30.30;94993.06;5025068;28;20297;-65
2022/07/24 08:28:04;;;;;;;10.68;8.90;;;;;;;28.35;30.16;94996.34;5022025;28;20264;-64
2022/07/24 08:30:29;;;;;;;12.68;9.63;;;;;;;28.42;30.51;94991.53;5022914;28;20253;-64
2022/07/24 08:32:55;;;;;;;13.05;8.73;;;;;;;28.64;30.86;94994.06;5018019;28;20230;-64
2022/07/24 08:35:20;;;;;;;12.45;9.15;;;;;;;28.88;30.73;94999.00;5024062;28;20337;-65
2022/07/24 08:37:46;;;;;;;11.02;9.88;;;;;;;29.16;29.86;94992.31;5025367;28;20202;-65
2022/07/24 08:40:12;;;;;;;13.82;9.55;;;;;;;29.40;29.35;94995.28;5015023;28;20331;-65
2022/07/24 08:42:38;;;;;;;12.48;9.77;;;;;;;29.61;29.11;94996.09;5023520;28;20218;-64
2022/07/24 08:45:04;;;;;;;15.23;10.15;;;;;;;29.71;29.29;94993.44;5022548;28;20215;-65
2022/07/24 08:47:33;;;;;;;12.38;9.75;;;;;;;29.87;29.61;94989.59;5026711;28;20248;-65
2022/07/24 08:50:01;;;;;;;13.05;9.80;;;;;;;29.94;29.69;94988.50;5042406;28;20205;-65
2022/07/24 08:52:27;;;;;;;15.45;10.20;;;;;;;29.96;28.81;94989.84;5026263;28;20194;-64
2022/07/24 08:54:53;;;;;;;14.23;10.27;;;;;;;29.92;28.65;94980.66;5026666;28;20229;-65
2022/07/24 08:57:19;;;;;;;16.83;9.85;;;;;;;29.96;29.07;94983.63;5026648;28;20218;-64
2022/07/24 08:59:44;;;;;;;14.43;9.63;;;;;;;29.74;29.37;94984.75;5021774;28;20218;-66
2022/07/24 09:02:10;;;;;;;14.48;10.38;;;;;;;29.82;29.04;94986.91;5019079;28;20212;-65
2022/07/24 09:04:35;;;;;;;10.77;9.45;;;;;;;29.93;30.04;94984.97;5042636;28;20197;-65
2022/07/24 09:07:07;;;;;;;13.18;9.93;;;;;;;29.99;29.31;94985.78;5042792;28;20232;-65
2022/07/24 09:09:33;;;;;;;13.52;10.23;;;;;;;30.08;28.89;94982.25;5043823;28;20229;-64
2022/07/24 09:12:07;;;;;;;16.88;10.25;;;;;;;30.20;27.95;94975.69;5047350;28;20217;-65
2022/07/24 09:14:38;;;;;;;11.35;9.57;;;;;;;30.19;28.51;94979.50;5043406;28;20230;-66
2022/07/24 09:17:10;;;;;;;13.32;10.50;;;;;;;30.25;28.60;94973.00;5040229;28;20291;-65
2022/07/24 09:19:55;;;;;;;14.02;10.65;;;;;;;30.41;28.28;94969.13;5041586;28;20281;-64
2022/07/24 09:22:26;;;;;;;12.57;10.93;;;;;;;30.45;28.77;94970.22;5035501;28;20712;-64
2022/07/24 09:25:09;;;;;;;12.80;10.40;;;;;;;30.53;28.62;94968.84;5041685;28;20233;-64
2022/07/24 09:27:48;;;;;;;12.43;10.52;;;;;;;30.65;27.77;94976.63;5045381;28;20268;-65
2022/07/24 09:30:37;;;;;;;14.60;10.50;;;;;;;30.71;28.11;94970.91;5050992;28;20241;-66
2022/07/24 09:33:12;;;;;;;14.90;10.18;;;;;;;30.76;28.30;94979.00;5034880;28;20582;-64
2022/07/24 09:35:49;;;;;;;13.85;10.68;;;;;;;31.02;27.52;94978.88;5037776;28;20584;-64
2022/07/24 09:38:24;;;;;;;14.30;10.18;;;;;;;31.10;27.28;94975.56;5023888;28;20213;-64
2022/07/24 09:40:54;;;;;;;15.18;9.85;;;;;;;31.19;27.68;94975.78;5022343;28;20248;-65
2022/07/24 09:43:24;;;;;;;13.35;10.38;;;;;;;31.48;27.25;94973.13;5014313;28;20223;-63
2022/07/24 09:46:03;;;;;;;20.92;10.68;;;;;;;31.80;26.76;94972.56;5021069;28;20491;-64
2022/07/24 09:48:53;;;;;;;15.35;9.38;;;;;;;31.98;25.40;94975.72;5036266;28;20290;-65
2022/07/24 09:51:19;;;;;;;12.10;10.82;;;;;;;32.22;25.69;94962.94;5032832;28;20231;-64
2022/07/24 09:53:46;;;;;;;15.13;10.45;;;;;;;32.28;25.64;94952.78;5042339;28;20213;-65
2022/07/24 09:56:14;;;;;;;15.68;9.30;;;;;;;32.36;23.89;94949.44;5042374;28;20209;-65
2022/07/24 09:58:46;;;;;;;13.32;9.82;;;;;;;32.59;25.04;94957.91;5041544;28;20216;-65
2022/07/24 10:01:16;;;;;;;14.95;9.13;;;;;;;32.67;24.46;94955.31;5042468;28;20221;-65
2022/07/24 10:03:44;;;;;;;14.50;9.27;;;;;;;32.91;23.83;94949.00;5057932;28;20222;-64
2022/07/24 10:06:14;;;;;;;13.18;9.07;;;;;;;32.84;23.97;94943.13;5043051;28;20221;-65
2022/07/24 10:08:41;;;;;;;13.48;8.40;;;;;;;32.74;21.87;94946.78;5042604;28;20261;-65
2022/07/24 10:11:08;;;;;;;12.05;9.30;;;;;;;32.76;22.31;94947.31;5041007;28;20210;-65
2022/07/24 10:13:34;;;;;;;11.98;8.40;;;;;;;32.83;22.37;94938.78;5042316;28;20394;-64
2022/07/24 10:16:00;;;;;;;10.57;8.50;;;;;;;32.94;22.37;94949.22;5042285;28;20245;-64
2022/07/24 10:18:36;;;;;;;13.13;8.73;;;;;;;32.99;22.01;94947.50;5055382;28;20260;-64
2022/07/24 10:21:06;;;;;;;14.25;8.60;;;;;;;33.18;22.21;94934.75;5043524;28;20221;-65
2022/07/24 10:23:53;;;;;;;11.77;7.80;;;;;;;33.43;21.93;94938.16;5043669;28;20217;-65
2022/07/24 10:26:43;;;;;;;11.57;8.52;;;;;;;33.37;22.07;94935.50;5041774;28;20217;-65
2022/07/24 10:29:12;;;;;;;11.15;8.18;;;;;;;33.41;22.04;94929.47;5042436;28;20218;-64
2022/07/24 10:31:43;;;;;;;14.13;8.48;;;;;;;33.58;21.25;94932.47;5044718;28;20406;-65
2022/07/24 10:34:26;;;;;;;10.07;8.23;;;;;;;33.71;20.98;94939.03;5027385;28;20291;-65
2022/07/24 10:37:13;;;;;;;11.48;7.78;;;;;;;33.82;20.83;94926.88;5057265;28;20233;-64
2022/07/24 10:39:49;;;;;;;8.70;7.50;;;;;;;34.09;20.89;94926.09;5039203;28;20225;-64
2022/07/24 10:42:15;;;;;;;12.93;7.97;;;;;;;34.18;20.92;94928.94;5040160;28;20217;-65
2022/07/24 10:44:41;;;;;;;11.32;7.57;;;;;;;34.31;19.98;94919.13;5058343;28;20232;-64
2022/07/24 10:47:08;;;;;;;10.15;8.05;;;;;;;34.22;20.36;94927.22;5056339;28;20197;-65
2022/07/24 10:49:34;;;;;;;8.98;7.72;;;;;;;34.22;20.41;94917.13;5056807;28;20285;-65
2022/07/24 10:52:00;;;;;;;13.07;8.15;;;;;;;34.40;20.94;94917.28;5025531;28;20371;-65
2022/07/24 10:54:25;;;;;;;11.40;8.10;;;;;;;34.48;20.28;94909.22;5027465;28;20222;-65
2022/07/24 10:56:51;;;;;;;13.45;7.88;;;;;;;34.49;19.97;94910.00;5026170;28;20222;-63
2022/07/24 10:59:32;;;;;;;10.38;7.80;;;;;;;34.80;20.03;94904.69;5053927;28;20234;-65
2022/07/24 11:02:29;;;;;;;11.70;8.38;;;;;;;35.03;19.36;94899.28;5024808;28;20222;-65
2022/07/24 11:05:22;;;;;;;11.82;8.13;;;;;;;35.38;18.65;94900.34;5026297;28;20206;-65
2022/07/24 11:08:17;;;;;;;12.35;8.30;;;;;;;35.66;18.59;94900.22;5033801;28;20233;-65
2022/07/24 11:10:54;;;;;;;12.05;7.88;;;;;;;35.64;18.46;94881.41;5045240;28;20225;-63
2022/07/24 11:13:32;;;;;;;10.35;7.30;;;;;;;35.93;18.25;94888.28;5042850;28;20218;-64
2022/07/24 11:16:15;;;;;;;8.20;7.22;;;;;;;36.22;18.26;94876.81;5028544;28;20281;-63
2022/07/24 11:18:50;;;;;;;10.43;8.38;;;;;;;36.51;17.83;94883.63;5023422;28;20257;-64
2022/07/24 11:21:30;;;;;;;8.30;7.22;;;;;;;36.19;17.37;94885.66;5037807;28;20249;-64
2022/07/24 11:24:27;;;;;;;10.90;7.22;;;;;;;35.87;18.60;94882.13;5026028;28;20305;-65